Time;durP1;ratioP1;P1;durP2;ratioP2;P2;SDS_P1;SDS_P2;PMS_P1;PMS_P2;Temp;Humidity;BMP_temperature;BMP_pressure;BME280_temperature;BME280_humidity;BME280_pressure;Samples;Min_cycle;Max_cycle;Signal;HPM_P1;HPM_P2
2022/05/18 00:00:03;;;;;;;8.30;7.60;;;;;;;16.88;73.29;101873.63;5077583;28;20463;-69
2022/05/18 00:02:28;;;;;;;6.40;5.90;;;;;;;16.67;72.18;101882.38;5076926;28;20862;-69
2022/05/18 00:04:54;;;;;;;6.70;5.80;;;;;;;16.66;71.80;101885.88;5077798;28;20422;-69
2022/05/18 00:07:19;;;;;;;6.10;5.50;;;;;;;16.42;71.06;101890.16;5078314;28;20164;-69
2022/05/18 00:09:45;;;;;;;5.67;5.17;;;;;;;16.79;68.48;101890.31;5077865;28;20188;-71
2022/05/18 00:12:10;;;;;;;5.60;5.10;;;;;;;16.87;68.06;101884.16;5077162;28;20192;-69
2022/05/18 00:14:36;;;;;;;5.67;4.67;;;;;;;16.32;67.18;101898.91;5076492;28;20176;-70
2022/05/18 00:17:03;;;;;;;8.97;4.30;;;;;;;16.46;65.62;101884.03;5072840;28;20222;-69
2022/05/18 00:19:32;;;;;;;4.37;4.00;;;;;;;16.53;64.76;101886.72;5077582;28;20538;-70
2022/05/18 00:21:57;;;;;;;5.37;4.57;;;;;;;16.47;64.18;101883.19;5078132;28;20453;-70
2022/05/18 00:24:23;;;;;;;4.57;4.20;;;;;;;16.45;63.79;101886.66;5066105;28;20841;-69
2022/05/18 00:26:48;;;;;;;4.90;4.40;;;;;;;17.13;62.21;101879.84;5073036;28;20199;-69
2022/05/18 00:29:13;;;;;;;4.70;4.00;;;;;;;17.35;60.53;101882.47;5076115;28;20222;-71
2022/05/18 00:31:41;;;;;;;3.97;3.57;;;;;;;16.49;60.67;101894.59;5075869;28;20220;-70
2022/05/18 00:34:06;;;;;;;7.60;3.90;;;;;;;16.56;59.81;101889.34;5079071;28;20201;-69
2022/05/18 00:36:32;;;;;;;6.33;3.73;;;;;;;16.75;58.84;101891.16;5081705;28;20451;-71
2022/05/18 00:38:57;;;;;;;5.90;3.50;;;;;;;16.59;60.32;101884.97;5081910;28;20177;-71
2022/05/18 00:41:23;;;;;;;3.90;3.50;;;;;;;17.13;58.19;101884.22;5082204;28;20461;-70
2022/05/18 00:43:50;;;;;;;4.83;3.50;;;;;;;17.05;57.57;101881.59;5084247;28;20171;-70
2022/05/18 00:46:15;;;;;;;3.80;3.40;;;;;;;16.47;57.83;101879.69;5084358;28;20199;-70
2022/05/18 00:48:41;;;;;;;3.77;3.47;;;;;;;16.02;58.43;101887.38;5081859;28;20423;-69
2022/05/18 00:51:13;;;;;;;6.00;3.37;;;;;;;16.48;57.53;101891.94;5082387;28;20561;-71
2022/05/18 00:53:41;;;;;;;3.73;3.00;;;;;;;16.03;57.76;101896.13;5080856;28;20184;-69
2022/05/18 00:56:13;;;;;;;5.50;3.47;;;;;;;16.17;57.17;101899.72;5080983;28;20423;-69
2022/05/18 00:58:54;;;;;;;3.93;3.10;;;;;;;16.41;56.45;101898.97;5081259;28;20749;-70
2022/05/18 01:01:19;;;;;;;4.60;3.20;;;;;;;15.82;58.14;101909.16;5081528;28;20776;-70
2022/05/18 01:03:48;;;;;;;3.67;2.97;;;;;;;15.63;57.36;101916.00;5081025;28;20386;-71
2022/05/18 01:06:23;;;;;;;3.70;2.70;;;;;;;15.48;57.35;101915.91;5080086;28;20306;-70
2022/05/18 01:09:05;;;;;;;4.77;3.23;;;;;;;15.78;56.64;101909.97;5080905;28;20421;-70
2022/05/18 01:11:32;;;;;;;2.93;2.73;;;;;;;15.38;56.47;101922.78;5080961;28;20698;-69
2022/05/18 01:13:57;;;;;;;3.27;2.80;;;;;;;15.23;57.39;101917.41;5080642;28;20407;-70
2022/05/18 01:16:25;;;;;;;3.20;2.90;;;;;;;15.53;56.25;101919.41;5082260;28;20490;-70
2022/05/18 01:18:52;;;;;;;2.90;2.70;;;;;;;15.85;56.63;101896.91;5080504;28;20201;-70
2022/05/18 01:21:17;;;;;;;4.50;2.90;;;;;;;15.55;56.92;101906.31;5079689;28;20462;-71
2022/05/18 01:24:04;;;;;;;3.00;2.80;;;;;;;15.11;56.63;101902.41;5080315;28;20415;-70
2022/05/18 01:26:47;;;;;;;3.17;2.87;;;;;;;15.51;56.95;101905.41;5079849;28;20171;-70
2022/05/18 01:29:13;;;;;;;5.03;3.13;;;;;;;15.29;56.94;101901.72;5080486;28;20421;-71
2022/05/18 01:31:48;;;;;;;3.30;3.00;;;;;;;14.81;57.48;101910.00;5080225;28;20643;-70
2022/05/18 01:34:14;;;;;;;3.90;3.03;;;;;;;15.48;56.98;101894.88;5079984;28;20438;-70
2022/05/18 01:36:40;;;;;;;3.97;2.87;;;;;;;15.21;57.38;101893.78;5080340;28;20415;-70
2022/05/18 01:39:08;;;;;;;3.00;2.70;;;;;;;14.93;57.36;101896.13;5080357;28;20503;-69
2022/05/18 01:41:39;;;;;;;4.50;3.00;;;;;;;15.89;55.79;101896.06;5079647;28;20161;-69
2022/05/18 01:44:05;;;;;;;4.30;3.10;;;;;;;15.25;57.40;101900.81;5079613;28;20415;-71
2022/05/18 01:46:32;;;;;;;5.50;3.07;;;;;;;14.91;57.10;101910.09;5079346;28;20462;-71
2022/05/18 01:48:58;;;;;;;6.23;3.30;;;;;;;14.98;57.31;101899.69;5079886;28;20169;-71
2022/05/18 01:51:30;;;;;;;5.50;3.10;;;;;;;15.59;56.68;101902.84;5080123;28;20681;-69
2022/05/18 01:53:56;;;;;;;4.60;3.30;;;;;;;15.21;56.00;101903.38;5079164;28;20244;-70
2022/05/18 01:56:21;;;;;;;3.70;2.93;;;;;;;14.76;57.60;101906.47;5080498;28;20486;-70
2022/05/18 01:58:47;;;;;;;5.23;2.80;;;;;;;14.77;56.85;101909.94;5079918;28;20234;-67
2022/05/18 02:01:12;;;;;;;4.67;3.20;;;;;;;14.88;56.29;101913.56;5079963;28;20197;-67
2022/05/18 02:03:37;;;;;;;4.10;3.50;;;;;;;14.75;57.31;101903.81;5080224;28;20173;-67
2022/05/18 02:06:03;;;;;;;3.20;2.90;;;;;;;14.73;57.13;101898.53;5079866;28;20542;-67
2022/05/18 02:08:28;;;;;;;5.80;3.27;;;;;;;14.82;57.49;101900.38;5079519;28;20204;-68
2022/05/18 02:10:53;;;;;;;5.07;2.90;;;;;;;14.38;57.90;101896.34;5080387;28;20165;-67
2022/05/18 02:13:20;;;;;;;4.87;3.03;;;;;;;15.14;57.57;101897.19;5079212;28;20169;-67
2022/05/18 02:15:46;;;;;;;3.73;3.10;;;;;;;14.68;57.36;101901.97;5079749;28;20180;-67
2022/05/18 02:18:12;;;;;;;3.63;2.80;;;;;;;14.58;57.25;101898.34;5079968;28;20370;-68
2022/05/18 02:20:37;;;;;;;4.40;2.97;;;;;;;14.79;57.25;101895.97;5079621;28;20516;-67
2022/05/18 02:23:03;;;;;;;3.87;2.93;;;;;;;14.65;57.88;101887.06;5079455;28;20165;-68
2022/05/18 02:25:28;;;;;;;5.00;2.83;;;;;;;14.93;56.87;101882.13;5080014;28;20165;-67
2022/05/18 02:27:55;;;;;;;3.87;2.60;;;;;;;15.03;56.04;101893.59;5079289;28;20530;-68
2022/05/18 02:30:20;;;;;;;3.93;2.70;;;;;;;14.84;56.59;101882.03;5079308;28;20192;-67
2022/05/18 02:32:45;;;;;;;3.90;3.13;;;;;;;14.87;56.90;101884.66;5079814;28;20435;-67
2022/05/18 02:35:11;;;;;;;3.67;2.90;;;;;;;14.58;57.12;101895.72;5079377;28;20180;-67
2022/05/18 02:37:36;;;;;;;3.47;3.17;;;;;;;15.04;56.02;101885.72;5079092;28;20180;-67
2022/05/18 02:40:02;;;;;;;3.23;3.03;;;;;;;14.98;56.30;101896.19;5079601;28;20613;-68
2022/05/18 02:42:27;;;;;;;3.40;2.93;;;;;;;14.80;57.19;101903.00;5079065;28;20173;-67
2022/05/18 02:44:53;;;;;;;5.50;3.13;;;;;;;14.86;56.62;101894.31;5079140;28;20386;-69
2022/05/18 02:47:20;;;;;;;4.80;3.20;;;;;;;14.56;57.29;101900.94;5079127;28;20247;-66
2022/05/18 02:49:46;;;;;;;3.87;2.77;;;;;;;14.92;56.23;101893.47;5078373;28;20165;-67
2022/05/18 02:52:11;;;;;;;6.03;3.30;;;;;;;14.36;56.56;101879.72;5078720;28;20415;-67
2022/05/18 02:57:20;;;;;;;9.43;2.93;;;;;;;14.88;56.11;101896.94;5078915;28;20171;-67
2022/05/18 02:59:46;;;;;;;3.33;3.00;;;;;;;14.77;57.38;101899.44;5078718;28;20516;-67
2022/05/18 03:02:12;;;;;;;7.17;3.13;;;;;;;15.07;56.52;101905.88;5078608;28;20555;-67
2022/05/18 03:04:37;;;;;;;4.20;3.27;;;;;;;14.47;58.51;101899.06;5078996;28;20491;-68
2022/05/18 03:07:02;;;;;;;3.60;3.17;;;;;;;14.18;58.35;101900.44;5078433;28;20195;-67
2022/05/18 03:09:28;;;;;;;4.90;3.53;;;;;;;14.59;57.32;101892.22;5078457;28;20161;-66
2022/05/18 03:11:55;;;;;;;4.10;3.67;;;;;;;14.59;56.88;101903.59;5079010;28;20191;-67
2022/05/18 03:14:20;;;;;;;4.27;2.77;;;;;;;14.58;58.17;101911.47;5078625;28;20165;-68
2022/05/18 03:16:45;;;;;;;3.40;3.10;;;;;;;14.40;57.28;101917.38;5078645;28;20400;-67
2022/05/18 03:19:11;;;;;;;5.10;3.20;;;;;;;14.39;57.63;101912.97;5078996;28;20168;-66
2022/05/18 03:24:20;;;;;;;4.20;3.30;;;;;;;14.84;57.55;101924.91;5078708;28;20385;-66
2022/05/18 03:26:45;;;;;;;3.43;2.80;;;;;;;15.01;56.27;101921.59;5078554;28;20415;-67
2022/05/18 03:29:12;;;;;;;6.23;3.50;;;;;;;14.53;57.69;101919.28;5078783;28;20267;-67
2022/05/18 03:31:37;;;;;;;3.30;3.00;;;;;;;14.71;56.34;101929.16;5078603;28;20161;-67
2022/05/18 03:34:03;;;;;;;3.40;3.10;;;;;;;14.31;58.45;101918.13;5078145;28;20400;-67
2022/05/18 03:36:28;;;;;;;5.47;3.30;;;;;;;14.45;58.95;101927.06;5078118;28;20164;-67
2022/05/18 03:38:54;;;;;;;4.47;3.07;;;;;;;14.72;57.80;101924.75;5078693;28;20165;-67
2022/05/18 03:41:20;;;;;;;3.57;3.27;;;;;;;14.52;57.92;101927.13;5078123;28;20303;-67
2022/05/18 03:43:46;;;;;;;3.43;3.13;;;;;;;14.85;57.93;101918.78;5078057;28;20382;-67
2022/05/18 03:46:12;;;;;;;8.10;3.83;;;;;;;15.17;56.72;101918.25;5078309;28;20394;-67
2022/05/18 03:48:38;;;;;;;5.40;3.00;;;;;;;14.31;58.34;101915.50;5078194;28;20169;-67
2022/05/18 03:51:07;;;;;;;3.90;3.50;;;;;;;14.60;58.55;101917.59;5078047;28;20666;-67
2022/05/18 03:53:32;;;;;;;5.50;3.50;;;;;;;14.40;58.51;101913.00;5077871;28;20642;-67
2022/05/18 03:55:58;;;;;;;6.97;3.47;;;;;;;14.65;58.36;101918.56;5078262;28;20405;-67
2022/05/18 03:58:24;;;;;;;4.30;3.30;;;;;;;14.27;59.25;101917.19;5078577;28;20322;-67
2022/05/18 04:00:51;;;;;;;8.10;3.37;;;;;;;14.71;58.05;101907.25;5078121;28;20330;-68
2022/05/18 04:03:18;;;;;;;4.43;3.53;;;;;;;14.78;58.57;101915.22;5077989;28;20228;-67
2022/05/18 04:05:44;;;;;;;3.60;3.30;;;;;;;14.37;58.80;101923.44;5082727;28;20411;-67
2022/05/18 04:08:10;;;;;;;4.43;4.03;;;;;;;14.11;59.22;101925.72;5082015;28;20411;-67
2022/05/18 04:10:38;;;;;;;5.10;3.70;;;;;;;14.76;57.83;101924.84;5081838;28;20168;-67
2022/05/18 04:13:04;;;;;;;4.37;3.60;;;;;;;14.80;58.42;101924.00;5082287;28;20819;-67
2022/05/18 04:15:30;;;;;;;5.20;3.37;;;;;;;14.37;59.47;101923.44;5081974;28;20411;-66
2022/05/18 04:17:56;;;;;;;6.40;3.30;;;;;;;14.53;59.16;101931.50;5082643;28;20176;-67
2022/05/18 04:20:22;;;;;;;6.57;3.10;;;;;;;14.65;58.77;101919.47;5083781;28;20421;-67
2022/05/18 04:22:49;;;;;;;7.67;3.40;;;;;;;15.29;57.22;101917.50;5081816;28;20213;-67
2022/05/18 04:25:25;;;;;;;4.00;3.40;;;;;;;14.93;58.32;101918.88;5081732;28;20494;-67
2022/05/18 04:27:50;;;;;;;5.93;3.50;;;;;;;14.95;57.89;101912.78;5081787;28;20389;-68
2022/05/18 04:30:17;;;;;;;6.27;3.57;;;;;;;15.21;56.42;101917.41;5081806;28;20452;-66
2022/05/18 04:32:42;;;;;;;5.37;3.40;;;;;;;15.76;55.04;101919.63;5082001;28;20180;-67
2022/05/18 04:35:09;;;;;;;4.47;3.07;;;;;;;15.25;56.33;101911.31;5081755;28;20418;-68
2022/05/18 04:37:35;;;;;;;5.20;4.23;;;;;;;17.31;52.15;101899.16;5081563;28;20157;-68
2022/05/18 04:40:00;;;;;;;4.83;3.10;;;;;;;16.83;51.57;101918.41;5081824;28;20752;-67
2022/05/18 04:42:26;;;;;;;7.30;3.67;;;;;;;18.36;48.68;101899.00;5081575;28;20455;-67
2022/05/18 04:44:51;;;;;;;3.93;3.10;;;;;;;17.84;49.69;101906.13;5081441;28;20205;-67
2022/05/18 04:47:20;;;;;;;5.13;3.33;;;;;;;16.54;53.24;101917.44;5080374;28;20303;-67
2022/05/18 04:49:45;;;;;;;3.60;3.30;;;;;;;15.91;54.21;101923.22;5080191;28;20176;-68
2022/05/18 04:52:11;;;;;;;5.33;4.00;;;;;;;16.95;51.73;101912.31;5080949;28;20411;-67
2022/05/18 04:54:36;;;;;;;5.53;3.70;;;;;;;18.30;48.02;101920.13;5081176;28;20183;-67
2022/05/18 04:57:01;;;;;;;4.73;3.67;;;;;;;17.57;50.61;101924.66;5081160;28;20172;-67
2022/05/18 04:59:27;;;;;;;6.87;3.50;;;;;;;18.14;49.13;101929.84;5081604;28;20189;-67
2022/05/18 05:01:52;;;;;;;7.60;4.10;;;;;;;16.73;52.46;101916.59;5080967;28;20176;-67
2022/05/18 05:04:17;;;;;;;7.03;3.83;;;;;;;18.55;48.44;101925.31;5071936;28;20182;-66
2022/05/18 05:06:46;;;;;;;4.60;3.87;;;;;;;17.82;49.68;101923.75;5077639;28;20211;-68
2022/05/18 05:09:12;;;;;;;4.40;4.00;;;;;;;17.85;50.29;101923.72;5076960;28;20177;-66
2022/05/18 05:11:37;;;;;;;3.83;3.53;;;;;;;19.44;46.56;101923.91;5070965;28;20446;-68
2022/05/18 05:14:03;;;;;;;7.93;4.30;;;;;;;19.13;46.67;101938.25;5076106;28;20186;-67
2022/05/18 05:16:29;;;;;;;7.10;3.80;;;;;;;18.22;49.71;101928.06;5073541;28;20181;-67
2022/05/18 05:18:55;;;;;;;5.00;3.50;;;;;;;18.10;49.27;101936.03;5067897;28;20223;-67
2022/05/18 05:21:20;;;;;;;4.10;3.73;;;;;;;19.32;46.60;101925.75;5067092;28;20491;-66
2022/05/18 05:23:46;;;;;;;4.17;3.77;;;;;;;19.82;46.21;101917.41;5072008;28;20208;-67
2022/05/18 05:26:12;;;;;;;4.83;3.80;;;;;;;18.40;48.38;101923.63;5079527;28;20199;-67
2022/05/18 05:28:37;;;;;;;4.00;3.60;;;;;;;18.66;48.32;101915.59;5079197;28;20430;-67
2022/05/18 05:31:07;;;;;;;5.33;3.90;;;;;;;19.52;46.05;101932.63;5080404;28;20256;-67
2022/05/18 05:33:33;;;;;;;6.83;3.60;;;;;;;19.73;46.48;101914.81;5080188;28;20271;-67
2022/05/18 05:35:59;;;;;;;4.50;3.70;;;;;;;17.21;51.26;101924.66;5080934;28;20415;-68
2022/05/18 05:38:25;;;;;;;5.77;3.80;;;;;;;17.31;52.79;101929.03;5080324;28;20425;-67
2022/05/18 05:40:50;;;;;;;5.33;4.03;;;;;;;17.40;52.87;101932.56;5080172;28;20204;-67
2022/05/18 05:43:16;;;;;;;6.03;4.23;;;;;;;17.58;52.39;101936.97;5080612;28;20535;-67
2022/05/18 05:45:41;;;;;;;5.23;4.73;;;;;;;17.57;53.07;101935.19;5080215;28;20173;-67
2022/05/18 05:48:08;;;;;;;6.13;4.30;;;;;;;17.56;52.16;101934.31;5079862;28;20220;-67
2022/05/18 05:50:34;;;;;;;4.63;4.00;;;;;;;18.31;50.14;101929.81;5080568;28;20165;-67
2022/05/18 05:53:00;;;;;;;4.13;3.73;;;;;;;19.58;47.93;101931.69;5079029;28;20547;-67
2022/05/18 05:55:26;;;;;;;4.53;4.13;;;;;;;19.33;48.67;101930.13;5078129;28;20188;-68
2022/05/18 05:57:55;;;;;;;7.43;4.13;;;;;;;18.15;51.20;101921.94;5071891;28;20176;-67
2022/05/18 06:00:22;;;;;;;5.33;4.60;;;;;;;17.34;54.56;101926.38;5085433;28;20886;-67
2022/05/18 06:02:47;;;;;;;5.97;4.60;;;;;;;17.32;54.21;101919.38;5067812;28;20408;-68
2022/05/18 06:05:13;;;;;;;8.47;4.27;;;;;;;17.14;55.12;101922.88;5067620;28;20794;-67
2022/05/18 06:07:39;;;;;;;6.13;4.37;;;;;;;16.61;56.51;101924.47;5071340;28;20185;-66
2022/05/18 06:10:04;;;;;;;5.07;4.50;;;;;;;17.27;55.82;101923.78;5080433;28;20422;-67
2022/05/18 06:12:30;;;;;;;4.80;4.30;;;;;;;16.83;56.98;101933.31;5078837;28;20177;-67
2022/05/18 06:14:57;;;;;;;7.83;4.30;;;;;;;17.39;54.93;101928.19;5079800;28;20172;-67
2022/05/18 06:17:22;;;;;;;5.30;4.80;;;;;;;16.99;56.50;101929.00;5079736;28;20183;-67
2022/05/18 06:19:47;;;;;;;5.33;4.83;;;;;;;16.86;57.16;101925.44;5067795;28;20463;-67
2022/05/18 06:22:12;;;;;;;5.30;4.80;;;;;;;16.84;56.97;101930.69;5079702;28;20554;-68
2022/05/18 06:24:39;;;;;;;5.20;4.70;;;;;;;17.38;57.05;101924.66;5074895;28;20216;-69
2022/05/18 06:27:05;;;;;;;5.30;4.60;;;;;;;17.01;57.93;101935.16;5077305;28;20256;-66
2022/05/18 06:29:30;;;;;;;6.37;5.00;;;;;;;19.15;51.98;101925.00;5079348;28;21449;-65
2022/05/18 06:31:56;;;;;;;4.60;4.20;;;;;;;19.96;49.24;101917.28;5076495;28;20191;-64
2022/05/18 06:34:22;;;;;;;5.37;4.37;;;;;;;20.84;46.13;101921.50;5079481;28;20157;-64
2022/05/18 06:36:49;;;;;;;5.73;4.80;;;;;;;19.77;49.99;101922.72;5079095;28;20542;-65
2022/05/18 06:39:16;;;;;;;4.97;4.47;;;;;;;18.43;53.25;101919.22;5078745;28;20211;-65
2022/05/18 06:41:41;;;;;;;5.60;5.00;;;;;;;19.27;51.75;101914.34;5066180;28;20440;-65
2022/05/18 06:44:06;;;;;;;5.80;4.97;;;;;;;18.40;53.87;101913.06;5078706;28;20546;-65
2022/05/18 06:46:34;;;;;;;6.47;4.90;;;;;;;17.41;57.49;101921.13;5066845;28;20231;-64
2022/05/18 06:48:59;;;;;;;5.13;4.63;;;;;;;18.24;55.05;101914.88;5059133;28;20261;-65
2022/05/18 06:51:28;;;;;;;6.40;5.10;;;;;;;18.61;54.23;101917.38;5058876;28;20507;-64
2022/05/18 06:53:54;;;;;;;5.93;5.30;;;;;;;18.47;54.38;101923.59;5071236;28;20193;-65
2022/05/18 06:56:20;;;;;;;5.87;5.07;;;;;;;17.99;55.86;101914.94;5079301;28;20423;-65
2022/05/18 06:58:50;;;;;;;5.10;4.60;;;;;;;18.16;55.33;101913.13;5071103;28;20484;-64
2022/05/18 07:01:16;;;;;;;7.30;5.13;;;;;;;18.52;55.32;101908.59;5076712;28;20466;-65
2022/05/18 07:03:42;;;;;;;5.90;5.40;;;;;;;17.31;57.88;101910.59;5059102;28;20455;-66
2022/05/18 07:06:07;;;;;;;5.70;5.20;;;;;;;17.95;57.10;101921.13;5068158;28;20442;-64
2022/05/18 07:08:33;;;;;;;8.20;5.80;;;;;;;17.95;56.87;101921.13;5075300;28;20431;-64
2022/05/18 07:10:58;;;;;;;7.97;5.80;;;;;;;17.95;57.37;101921.97;5077330;28;20179;-65
2022/05/18 07:13:24;;;;;;;7.40;5.60;;;;;;;17.32;58.85;101922.03;5077011;28;20438;-65
2022/05/18 07:15:49;;;;;;;6.90;5.90;;;;;;;16.64;60.73;101917.47;5078467;28;20596;-64
2022/05/18 07:18:15;;;;;;;8.03;5.93;;;;;;;17.73;58.44;101912.34;5077925;28;20173;-66
2022/05/18 07:20:41;;;;;;;7.57;5.87;;;;;;;17.48;59.26;101917.59;5079174;28;20193;-66
2022/05/18 07:23:07;;;;;;;6.50;5.90;;;;;;;16.56;61.63;101921.84;5077360;28;20223;-64
2022/05/18 07:25:32;;;;;;;7.70;6.03;;;;;;;16.94;60.88;101926.34;5067610;28;20529;-64
2022/05/18 07:27:57;;;;;;;6.73;6.00;;;;;;;16.97;60.73;101928.13;5078133;28;20199;-65
2022/05/18 07:30:23;;;;;;;7.13;5.80;;;;;;;17.42;60.40;101929.03;5078191;28;20176;-65
2022/05/18 07:32:48;;;;;;;10.00;5.67;;;;;;;17.51;59.76;101921.13;5078250;28;20177;-66
2022/05/18 07:35:13;;;;;;;9.33;5.90;;;;;;;17.55;60.17;101929.94;5075676;28;20238;-71
2022/05/18 07:37:39;;;;;;;8.23;6.00;;;;;;;17.57;59.57;101930.78;5059312;28;20190;-69
2022/05/18 07:40:06;;;;;;;8.30;6.23;;;;;;;16.92;60.97;101921.97;5060768;28;20208;-66
2022/05/18 07:42:32;;;;;;;6.47;5.70;;;;;;;17.01;61.33;101924.63;5072113;28;20260;-68
2022/05/18 07:44:57;;;;;;;12.37;6.50;;;;;;;17.64;60.34;101931.66;5075299;28;20432;-67
2022/05/18 07:47:30;;;;;;;13.53;6.30;;;;;;;17.30;60.48;101932.53;5071179;28;20221;-67
2022/05/18 07:49:55;;;;;;;6.80;6.10;;;;;;;17.78;59.71;101921.09;5055370;28;20543;-70
2022/05/18 07:52:21;;;;;;;6.57;5.87;;;;;;;17.74;60.08;101922.88;5056508;28;20419;-66
2022/05/18 07:54:47;;;;;;;10.70;6.50;;;;;;;18.00;59.00;101924.63;5062841;28;20205;-66
2022/05/18 07:57:13;;;;;;;7.03;6.37;;;;;;;18.04;59.24;101925.50;5073968;28;20208;-64
2022/05/18 07:59:39;;;;;;;7.23;6.43;;;;;;;18.61;58.36;101909.44;5076074;28;20478;-67
2022/05/18 08:02:04;;;;;;;9.67;6.77;;;;;;;18.51;57.52;101919.19;5076828;28;20427;-65
2022/05/18 08:04:30;;;;;;;6.67;6.07;;;;;;;19.66;55.18;101913.97;5075413;28;20715;-66
2022/05/18 08:06:55;;;;;;;7.17;6.23;;;;;;;20.19;54.23;101907.28;5077637;28;20199;-66
2022/05/18 08:09:22;;;;;;;7.80;6.13;;;;;;;22.27;49.05;101893.38;5077937;28;20204;-66
2022/05/18 08:17:17;;;;;;;6.90;6.30;;;;;;;22.18;48.12;101897.97;5077693;28;20529;-65
2022/05/18 08:19:42;;;;;;;14.53;6.30;;;;;;;22.96;46.72;101883.91;5077390;28;20482;-64
2022/05/18 08:22:08;;;;;;;6.50;5.90;;;;;;;24.34;43.96;101888.25;5077318;28;21576;-66
2022/05/18 08:24:33;;;;;;;7.77;6.07;;;;;;;22.80;46.78;101902.00;5077699;28;20161;-66
2022/05/18 08:26:58;;;;;;;8.77;6.20;;;;;;;23.33;45.50;101900.78;5077589;28;20466;-66
2022/05/18 08:29:24;;;;;;;6.83;6.20;;;;;;;22.39;47.72;101895.81;5077371;28;20173;-66
2022/05/18 08:31:49;;;;;;;9.03;6.50;;;;;;;23.09;46.81;101892.44;5077685;28;20165;-68
2022/05/18 08:34:14;;;;;;;6.67;6.07;;;;;;;23.71;46.96;101891.75;5077342;28;20185;-67
2022/05/18 08:36:40;;;;;;;6.57;5.97;;;;;;;24.08;45.55;101878.38;5077421;28;20181;-67
2022/05/18 08:39:06;;;;;;;8.03;6.70;;;;;;;24.16;45.27;101890.53;5077618;28;20172;-68
2022/05/18 08:41:44;;;;;;;7.70;6.57;;;;;;;24.96;43.27;101878.38;5076784;28;20455;-68
2022/05/18 08:44:20;;;;;;;7.47;6.50;;;;;;;24.65;43.53;101885.59;5077367;28;20169;-66
2022/05/18 08:46:55;;;;;;;7.63;6.00;;;;;;;26.27;41.22;101881.81;5076529;28;20468;-66
2022/05/18 08:49:30;;;;;;;7.60;6.50;;;;;;;26.08;41.79;101876.31;5076883;28;20406;-67
2022/05/18 08:52:07;;;;;;;8.20;7.40;;;;;;;24.62;43.08;101885.66;5080856;28;20406;-67
2022/05/18 08:55:21;;;;;;;7.17;6.50;;;;;;;25.75;43.07;101868.59;5080332;28;20423;-67
2022/05/18 08:57:48;;;;;;;7.30;6.70;;;;;;;25.33;43.27;101871.78;5062885;28;20490;-67
2022/05/18 09:00:20;;;;;;;7.67;7.07;;;;;;;25.18;43.83;101876.75;5080124;28;20867;-67
2022/05/18 09:02:46;;;;;;;8.30;7.07;;;;;;;24.53;46.11;101881.47;5080088;28;20411;-66
2022/05/18 09:05:16;;;;;;;9.00;7.13;;;;;;;25.24;44.94;101882.81;5080066;28;20419;-67
2022/05/18 09:07:47;;;;;;;8.27;7.30;;;;;;;25.24;44.89;101873.00;5079711;28;20421;-67
2022/05/18 09:10:30;;;;;;;8.23;7.43;;;;;;;25.37;45.40;101857.44;5080495;28;20668;-66
2022/05/18 09:12:55;;;;;;;7.47;6.97;;;;;;;25.86;44.10;101866.38;5080254;28;20679;-66
2022/05/18 09:15:51;;;;;;;9.67;7.17;;;;;;;27.12;40.79;101857.06;5080728;28;20408;-65
2022/05/18 09:18:42;;;;;;;10.83;7.87;;;;;;;26.21;42.86;101858.88;5079567;28;20755;-66
2022/05/18 09:21:44;;;;;;;9.90;8.37;;;;;;;26.89;42.17;101860.69;5080345;28;20470;-66
2022/05/18 09:24:25;;;;;;;8.70;8.00;;;;;;;24.34;47.07;101853.59;5080099;28;20545;-66
2022/05/18 09:26:59;;;;;;;8.63;7.80;;;;;;;27.02;42.46;101853.00;5080573;28;20415;-68
2022/05/18 09:29:29;;;;;;;8.63;8.00;;;;;;;25.44;45.61;101856.34;5080031;28;20437;-67
2022/05/18 09:31:58;;;;;;;9.60;8.50;;;;;;;26.01;44.12;101848.91;5078435;28;20426;-68
2022/05/18 09:34:39;;;;;;;10.50;9.50;;;;;;;26.78;43.09;101844.19;5079919;28;20848;-65
2022/05/18 09:37:26;;;;;;;10.20;9.40;;;;;;;26.03;44.26;101854.22;5079540;28;20415;-67
2022/05/18 09:40:19;;;;;;;13.50;9.20;;;;;;;26.25;44.50;101845.38;5079181;28;20455;-67
2022/05/18 09:42:49;;;;;;;10.10;9.17;;;;;;;25.87;44.06;101852.09;5079140;28;20423;-67
2022/05/18 09:45:17;;;;;;;10.20;9.43;;;;;;;26.30;44.05;101838.06;5079143;28;20468;-67
2022/05/18 09:48:01;;;;;;;9.50;8.80;;;;;;;25.42;44.72;101841.28;5079082;28;20868;-67
2022/05/18 09:50:27;;;;;;;10.50;9.40;;;;;;;26.62;43.36;101847.47;5079723;28;20407;-68
2022/05/18 09:52:52;;;;;;;10.20;9.40;;;;;;;25.75;45.87;101835.66;5079035;28;20814;-66
2022/05/18 09:55:21;;;;;;;8.40;7.80;;;;;;;26.75;43.41;101837.19;5080032;28;20161;-66
2022/05/18 09:58:01;;;;;;;10.03;9.23;;;;;;;26.65;45.00;101833.13;5078724;28;20184;-66
2022/05/18 10:00:28;;;;;;;9.90;9.20;;;;;;;27.52;42.66;101847.34;5079383;28;20746;-67
2022/05/18 10:08:34;;;;;;;10.37;9.07;;;;;;;25.82;46.37;101846.06;5078954;28;20429;-69
2022/05/18 10:11:08;;;;;;;11.17;10.17;;;;;;;26.00;45.44;101843.63;5082201;28;20771;-68
2022/05/18 10:13:37;;;;;;;11.30;9.83;;;;;;;26.31;45.35;101840.69;5081688;28;20419;-69
2022/05/18 10:16:17;;;;;;;13.53;9.27;;;;;;;26.65;46.12;101833.97;5079684;28;20407;-69
2022/05/18 10:18:50;;;;;;;10.63;9.87;;;;;;;26.37;45.29;101820.84;5078525;28;20442;-68
2022/05/18 10:21:15;;;;;;;11.10;10.10;;;;;;;26.54;44.89;101814.84;5079091;28;20462;-68
2022/05/18 10:24:23;;;;;;;11.20;10.00;;;;;;;27.56;43.06;101826.63;5079012;28;20403;-69
2022/05/18 10:27:09;;;;;;;9.70;8.83;;;;;;;27.42;43.24;101808.50;5001418;28;20166;-68
2022/05/18 10:29:34;;;;;;;10.07;9.17;;;;;;;26.60;46.19;101819.06;5077649;28;20426;-69
2022/05/18 10:32:07;;;;;;;10.10;9.30;;;;;;;27.21;44.23;101816.50;5078978;28;20411;-68
2022/05/18 10:34:47;;;;;;;10.80;9.37;;;;;;;27.96;42.81;101800.69;5078918;28;20165;-69
2022/05/18 10:37:14;;;;;;;9.00;8.30;;;;;;;27.01;44.40;101809.34;5078545;28;20410;-66
2022/05/18 10:39:42;;;;;;;10.50;9.60;;;;;;;27.25;43.10;101805.66;5078625;28;20415;-67
2022/05/18 10:42:48;;;;;;;9.90;9.20;;;;;;;27.46;43.77;101801.22;5078767;28;20680;-65
2022/05/18 10:45:32;;;;;;;10.50;9.70;;;;;;;26.73;45.29;101807.81;5078710;28;20415;-66
2022/05/18 10:48:04;;;;;;;10.30;9.50;;;;;;;25.85;47.78;101819.22;5078443;28;20485;-67
2022/05/18 10:50:39;;;;;;;10.43;9.63;;;;;;;27.86;43.63;101802.94;5077898;28;20415;-66
2022/05/18 10:53:13;;;;;;;9.90;9.00;;;;;;;28.23;42.37;101798.53;5077572;28;20428;-67
2022/05/18 10:55:55;;;;;;;10.40;9.60;;;;;;;27.67;43.39;101808.28;5077062;28;20439;-68
2022/05/18 10:58:25;;;;;;;10.33;9.53;;;;;;;27.56;43.36;101805.19;5077548;28;20434;-69
2022/05/18 11:00:55;;;;;;;9.97;9.17;;;;;;;27.38;44.84;101794.38;5078350;28;20465;-69
2022/05/18 11:03:23;;;;;;;10.57;9.67;;;;;;;28.17;42.53;101785.44;5077463;28;20447;-69
2022/05/18 11:05:52;;;;;;;11.70;9.90;;;;;;;27.18;45.34;101795.25;5078582;28;20502;-70
2022/05/18 11:08:19;;;;;;;11.23;10.33;;;;;;;26.71;46.51;101782.94;5078472;28;20411;-68
2022/05/18 11:11:02;;;;;;;10.80;9.80;;;;;;;26.18;46.82;101784.16;5078810;28;20437;-69
2022/05/18 11:13:33;;;;;;;10.57;9.57;;;;;;;26.93;46.87;101781.16;5077386;28;20685;-67
2022/05/18 11:16:10;;;;;;;11.73;10.63;;;;;;;27.47;46.05;101769.00;5077834;28;20415;-67
2022/05/18 11:18:50;;;;;;;10.23;9.53;;;;;;;26.92;46.71;101761.56;5078571;28;20411;-68
2022/05/18 11:21:22;;;;;;;10.83;9.93;;;;;;;28.24;43.23;101761.88;5078388;28;20471;-68
2022/05/18 11:24:14;;;;;;;11.47;10.40;;;;;;;26.87;46.29;101759.09;5078502;28;20678;-66
2022/05/18 11:27:02;;;;;;;10.90;10.10;;;;;;;27.64;44.77;101759.31;5078157;28;20403;-67
2022/05/18 11:29:54;;;;;;;12.20;11.10;;;;;;;26.86;47.08;101772.53;5077812;28;20418;-66
2022/05/18 11:32:27;;;;;;;10.80;10.00;;;;;;;26.35;48.49;101763.91;5077976;28;20421;-67
2022/05/18 11:35:02;;;;;;;12.13;11.17;;;;;;;26.24;48.34;101748.31;5077362;28;20805;-67
2022/05/18 11:38:14;;;;;;;11.67;10.70;;;;;;;26.65;46.95;101756.41;5077506;28;20417;-68
2022/05/18 11:41:06;;;;;;;12.30;11.30;;;;;;;28.10;44.44;101741.09;5077904;28;20847;-68
2022/05/18 11:43:48;;;;;;;12.00;10.90;;;;;;;27.85;45.39;101736.03;5077836;28;20418;-67
2022/05/18 11:46:44;;;;;;;12.57;11.57;;;;;;;27.51;46.14;101733.09;5077126;28;20415;-68
2022/05/18 11:49:20;;;;;;;11.77;10.70;;;;;;;27.63;44.87;101733.47;5077861;28;20446;-66